sensor_id;sensor_type;location;lat;lon;timestamp;P1;durP1;ratioP1;P2;durP2;ratioP2
9712;SDS011;4895;50.926;6.870;2022-10-31T00:00:28;18.97;;;7.50;;
9712;SDS011;4895;50.926;6.870;2022-10-31T00:02:53;15.37;;;7.70;;
9712;SDS011;4895;50.926;6.870;2022-10-31T00:05:19;18.30;;;7.60;;
9712;SDS011;4895;50.926;6.870;2022-10-31T00:07:44;14.03;;;7.57;;
9712;SDS011;4895;50.926;6.870;2022-10-31T00:10:09;14.30;;;7.50;;
9712;SDS011;4895;50.926;6.870;2022-10-31T00:12:35;14.13;;;7.47;;
9712;SDS011;4895;50.926;6.870;2022-10-31T00:15:00;17.70;;;7.03;;
9712;SDS011;4895;50.926;6.870;2022-10-31T00:17:25;17.50;;;7.23;;
9712;SDS011;4895;50.926;6.870;2022-10-31T00:19:51;15.53;;;7.47;;
9712;SDS011;4895;50.926;6.870;2022-10-31T00:22:16;18.03;;;7.27;;
9712;SDS011;4895;50.926;6.870;2022-10-31T00:24:42;15.93;;;7.90;;
9712;SDS011;4895;50.926;6.870;2022-10-31T00:27:07;21.67;;;8.30;;
9712;SDS011;4895;50.926;6.870;2022-10-31T00:29:32;12.80;;;7.63;;
9712;SDS011;4895;50.926;6.870;2022-10-31T00:31:58;17.70;;;7.07;;
9712;SDS011;4895;50.926;6.870;2022-10-31T00:34:23;20.63;;;7.30;;
9712;SDS011;4895;50.926;6.870;2022-10-31T00:36:48;28.43;;;8.70;;
9712;SDS011;4895;50.926;6.870;2022-10-31T00:39:14;15.40;;;7.10;;
9712;SDS011;4895;50.926;6.870;2022-10-31T00:41:39;17.03;;;7.33;;
9712;SDS011;4895;50.926;6.870;2022-10-31T00:44:04;11.63;;;7.00;;
9712;SDS011;4895;50.926;6.870;2022-10-31T00:46:30;16.80;;;7.60;;
9712;SDS011;4895;50.926;6.870;2022-10-31T00:48:55;22.40;;;9.37;;
9712;SDS011;4895;50.926;6.870;2022-10-31T00:51:20;16.97;;;7.47;;
9712;SDS011;4895;50.926;6.870;2022-10-31T00:53:46;17.57;;;8.60;;
9712;SDS011;4895;50.926;6.870;2022-10-31T00:56:11;24.50;;;7.53;;
9712;SDS011;4895;50.926;6.870;2022-10-31T00:58:37;21.10;;;8.47;;
9712;SDS011;4895;50.926;6.870;2022-10-31T01:01:02;22.00;;;9.00;;
9712;SDS011;4895;50.926;6.870;2022-10-31T01:03:29;18.97;;;7.43;;
9712;SDS011;4895;50.926;6.870;2022-10-31T01:05:57;13.43;;;6.97;;
9712;SDS011;4895;50.926;6.870;2022-10-31T01:08:23;14.40;;;7.00;;
9712;SDS011;4895;50.926;6.870;2022-10-31T01:10:57;14.97;;;8.10;;
9712;SDS011;4895;50.926;6.870;2022-10-31T01:13:27;17.33;;;8.70;;
9712;SDS011;4895;50.926;6.870;2022-10-31T01:15:56;14.40;;;6.93;;
9712;SDS011;4895;50.926;6.870;2022-10-31T01:18:23;18.80;;;7.97;;
9712;SDS011;4895;50.926;6.870;2022-10-31T01:20:56;14.20;;;6.97;;
9712;SDS011;4895;50.926;6.870;2022-10-31T01:23:33;15.50;;;8.50;;
9712;SDS011;4895;50.926;6.870;2022-10-31T01:26:02;15.70;;;8.00;;
9712;SDS011;4895;50.926;6.870;2022-10-31T01:28:30;23.80;;;9.40;;
9712;SDS011;4895;50.926;6.870;2022-10-31T01:30:55;18.20;;;8.47;;
9712;SDS011;4895;50.926;6.870;2022-10-31T01:33:20;17.73;;;8.07;;
9712;SDS011;4895;50.926;6.870;2022-10-31T01:35:46;20.40;;;8.33;;
9712;SDS011;4895;50.926;6.870;2022-10-31T01:38:11;21.93;;;8.50;;
9712;SDS011;4895;50.926;6.870;2022-10-31T01:40:36;15.73;;;8.30;;
9712;SDS011;4895;50.926;6.870;2022-10-31T01:43:02;26.53;;;8.47;;
9712;SDS011;4895;50.926;6.870;2022-10-31T01:45:27;20.47;;;8.30;;
9712;SDS011;4895;50.926;6.870;2022-10-31T01:47:52;16.10;;;7.83;;
9712;SDS011;4895;50.926;6.870;2022-10-31T01:50:22;17.33;;;7.77;;
9712;SDS011;4895;50.926;6.870;2022-10-31T01:52:55;17.87;;;7.67;;
9712;SDS011;4895;50.926;6.870;2022-10-31T01:55:31;14.30;;;8.10;;
9712;SDS011;4895;50.926;6.870;2022-10-31T01:57:59;19.77;;;8.77;;
9712;SDS011;4895;50.926;6.870;2022-10-31T02:00:28;17.83;;;8.40;;
9712;SDS011;4895;50.926;6.870;2022-10-31T02:02:54;24.77;;;8.67;;
9712;SDS011;4895;50.926;6.870;2022-10-31T02:05:21;20.30;;;7.13;;
9712;SDS011;4895;50.926;6.870;2022-10-31T02:07:51;15.27;;;7.70;;
9712;SDS011;4895;50.926;6.870;2022-10-31T02:10:21;13.10;;;7.97;;
9712;SDS011;4895;50.926;6.870;2022-10-31T02:12:47;19.67;;;8.10;;
9712;SDS011;4895;50.926;6.870;2022-10-31T02:15:14;19.17;;;8.10;;
9712;SDS011;4895;50.926;6.870;2022-10-31T02:17:40;18.83;;;7.90;;
9712;SDS011;4895;50.926;6.870;2022-10-31T02:20:15;21.67;;;7.07;;
9712;SDS011;4895;50.926;6.870;2022-10-31T02:33:55;14.40;;;7.07;;
9712;SDS011;4895;50.926;6.870;2022-10-31T02:41:35;16.53;;;8.10;;
9712;SDS011;4895;50.926;6.870;2022-10-31T02:46:50;21.20;;;8.30;;
9712;SDS011;4895;50.926;6.870;2022-10-31T02:52:21;18.63;;;7.07;;
9712;SDS011;4895;50.926;6.870;2022-10-31T02:54:49;15.97;;;7.93;;
9712;SDS011;4895;50.926;6.870;2022-10-31T02:57:15;18.73;;;8.60;;
9712;SDS011;4895;50.926;6.870;2022-10-31T02:59:49;19.13;;;8.40;;
9712;SDS011;4895;50.926;6.870;2022-10-31T03:02:30;19.07;;;8.23;;
9712;SDS011;4895;50.926;6.870;2022-10-31T03:05:08;15.27;;;7.80;;
9712;SDS011;4895;50.926;6.870;2022-10-31T03:08:02;19.40;;;8.30;;
9712;SDS011;4895;50.926;6.870;2022-10-31T03:13:10;21.70;;;9.10;;
9712;SDS011;4895;50.926;6.870;2022-10-31T03:15:44;18.73;;;8.00;;
9712;SDS011;4895;50.926;6.870;2022-10-31T03:18:16;17.63;;;8.60;;
9712;SDS011;4895;50.926;6.870;2022-10-31T03:20:46;18.50;;;8.10;;
9712;SDS011;4895;50.926;6.870;2022-10-31T03:23:15;18.90;;;9.70;;
9712;SDS011;4895;50.926;6.870;2022-10-31T03:25:41;17.60;;;9.03;;
9712;SDS011;4895;50.926;6.870;2022-10-31T03:28:07;18.23;;;8.53;;
9712;SDS011;4895;50.926;6.870;2022-10-31T03:30:34;32.37;;;9.70;;
9712;SDS011;4895;50.926;6.870;2022-10-31T03:33:01;15.67;;;8.67;;
9712;SDS011;4895;50.926;6.870;2022-10-31T03:35:28;18.93;;;9.33;;
9712;SDS011;4895;50.926;6.870;2022-10-31T03:37:54;18.50;;;9.53;;
9712;SDS011;4895;50.926;6.870;2022-10-31T03:40:21;22.40;;;8.83;;
9712;SDS011;4895;50.926;6.870;2022-10-31T03:42:50;19.23;;;8.57;;
9712;SDS011;4895;50.926;6.870;2022-10-31T03:45:20;15.77;;;9.20;;
9712;SDS011;4895;50.926;6.870;2022-10-31T03:47:48;20.20;;;9.80;;
9712;SDS011;4895;50.926;6.870;2022-10-31T03:50:14;22.00;;;9.17;;
9712;SDS011;4895;50.926;6.870;2022-10-31T03:52:48;17.30;;;9.00;;
9712;SDS011;4895;50.926;6.870;2022-10-31T03:55:28;17.60;;;8.73;;
9712;SDS011;4895;50.926;6.870;2022-10-31T04:00:44;16.20;;;8.40;;
9712;SDS011;4895;50.926;6.870;2022-10-31T04:03:43;18.43;;;8.83;;
9712;SDS011;4895;50.926;6.870;2022-10-31T04:06:03;17.67;;;9.30;;
9712;SDS011;4895;50.926;6.870;2022-10-31T04:08:32;18.87;;;8.63;;
9712;SDS011;4895;50.926;6.870;2022-10-31T04:11:01;15.00;;;8.80;;
9712;SDS011;4895;50.926;6.870;2022-10-31T04:13:29;24.30;;;8.00;;
9712;SDS011;4895;50.926;6.870;2022-10-31T04:15:56;15.17;;;8.63;;
9712;SDS011;4895;50.926;6.870;2022-10-31T04:18:22;21.20;;;7.80;;
9712;SDS011;4895;50.926;6.870;2022-10-31T04:20:48;16.80;;;9.00;;
9712;SDS011;4895;50.926;6.870;2022-10-31T04:23:19;16.37;;;7.90;;
9712;SDS011;4895;50.926;6.870;2022-10-31T04:25:47;18.90;;;9.50;;
9712;SDS011;4895;50.926;6.870;2022-10-31T04:28:12;13.63;;;8.03;;
9712;SDS011;4895;50.926;6.870;2022-10-31T04:30:38;20.83;;;8.50;;
9712;SDS011;4895;50.926;6.870;2022-10-31T04:33:03;19.47;;;8.43;;
9712;SDS011;4895;50.926;6.870;2022-10-31T04:35:28;21.40;;;8.63;;
9712;SDS011;4895;50.926;6.870;2022-10-31T04:37:53;16.43;;;7.93;;
9712;SDS011;4895;50.926;6.870;2022-10-31T04:40:19;19.53;;;8.50;;
9712;SDS011;4895;50.926;6.870;2022-10-31T04:42:44;17.13;;;8.30;;
9712;SDS011;4895;50.926;6.870;2022-10-31T04:45:10;25.90;;;8.33;;
9712;SDS011;4895;50.926;6.870;2022-10-31T04:47:35;15.80;;;8.30;;
9712;SDS011;4895;50.926;6.870;2022-10-31T04:50:01;21.37;;;8.53;;
9712;SDS011;4895;50.926;6.870;2022-10-31T04:52:27;17.00;;;8.30;;
9712;SDS011;4895;50.926;6.870;2022-10-31T04:54:52;16.47;;;7.90;;
9712;SDS011;4895;50.926;6.870;2022-10-31T04:57:18;24.50;;;8.43;;
9712;SDS011;4895;50.926;6.870;2022-10-31T04:59:43;18.30;;;8.70;;
9712;SDS011;4895;50.926;6.870;2022-10-31T05:02:08;22.33;;;8.20;;
9712;SDS011;4895;50.926;6.870;2022-10-31T05:04:34;17.10;;;7.37;;
9712;SDS011;4895;50.926;6.870;2022-10-31T05:06:59;19.40;;;8.87;;
9712;SDS011;4895;50.926;6.870;2022-10-31T05:09:24;17.97;;;8.93;;
9712;SDS011;4895;50.926;6.870;2022-10-31T05:11:49;16.10;;;8.00;;
9712;SDS011;4895;50.926;6.870;2022-10-31T05:14:15;23.13;;;8.70;;
9712;SDS011;4895;50.926;6.870;2022-10-31T05:16:40;19.90;;;7.90;;
9712;SDS011;4895;50.926;6.870;2022-10-31T05:19:05;14.00;;;8.50;;
9712;SDS011;4895;50.926;6.870;2022-10-31T05:21:31;16.47;;;9.30;;
9712;SDS011;4895;50.926;6.870;2022-10-31T05:23:56;17.00;;;9.57;;
9712;SDS011;4895;50.926;6.870;2022-10-31T05:26:21;22.03;;;8.63;;
9712;SDS011;4895;50.926;6.870;2022-10-31T05:28:47;17.73;;;8.33;;
9712;SDS011;4895;50.926;6.870;2022-10-31T05:31:12;15.87;;;8.63;;
9712;SDS011;4895;50.926;6.870;2022-10-31T05:33:37;13.20;;;7.93;;
9712;SDS011;4895;50.926;6.870;2022-10-31T05:36:03;18.80;;;8.80;;
9712;SDS011;4895;50.926;6.870;2022-10-31T05:38:28;19.37;;;8.90;;
9712;SDS011;4895;50.926;6.870;2022-10-31T05:40:54;18.80;;;8.40;;
9712;SDS011;4895;50.926;6.870;2022-10-31T05:43:22;15.53;;;7.77;;
9712;SDS011;4895;50.926;6.870;2022-10-31T05:45:51;21.03;;;8.27;;
9712;SDS011;4895;50.926;6.870;2022-10-31T05:48:17;15.00;;;7.97;;
9712;SDS011;4895;50.926;6.870;2022-10-31T05:50:42;16.63;;;7.90;;
9712;SDS011;4895;50.926;6.870;2022-10-31T05:53:07;20.17;;;8.57;;
9712;SDS011;4895;50.926;6.870;2022-10-31T05:55:33;12.43;;;6.97;;
9712;SDS011;4895;50.926;6.870;2022-10-31T05:57:58;19.70;;;8.20;;
9712;SDS011;4895;50.926;6.870;2022-10-31T06:00:24;14.80;;;7.87;;
9712;SDS011;4895;50.926;6.870;2022-10-31T06:02:57;23.73;;;9.10;;
9712;SDS011;4895;50.926;6.870;2022-10-31T06:05:23;24.33;;;9.17;;
9712;SDS011;4895;50.926;6.870;2022-10-31T06:07:48;28.53;;;9.40;;
9712;SDS011;4895;50.926;6.870;2022-10-31T06:10:14;20.90;;;8.50;;
9712;SDS011;4895;50.926;6.870;2022-10-31T06:12:39;20.10;;;9.37;;
9712;SDS011;4895;50.926;6.870;2022-10-31T06:15:06;13.47;;;8.00;;
9712;SDS011;4895;50.926;6.870;2022-10-31T06:17:32;20.73;;;8.90;;
9712;SDS011;4895;50.926;6.870;2022-10-31T06:19:58;15.77;;;7.33;;
9712;SDS011;4895;50.926;6.870;2022-10-31T06:22:24;15.90;;;9.50;;
9712;SDS011;4895;50.926;6.870;2022-10-31T06:24:49;15.40;;;8.87;;
9712;SDS011;4895;50.926;6.870;2022-10-31T06:27:14;14.20;;;8.40;;
9712;SDS011;4895;50.926;6.870;2022-10-31T06:29:40;18.03;;;8.93;;
9712;SDS011;4895;50.926;6.870;2022-10-31T06:32:05;16.80;;;8.93;;
9712;SDS011;4895;50.926;6.870;2022-10-31T06:34:30;16.83;;;8.40;;
9712;SDS011;4895;50.926;6.870;2022-10-31T06:36:56;17.70;;;9.20;;
9712;SDS011;4895;50.926;6.870;2022-10-31T06:39:21;16.00;;;8.90;;
9712;SDS011;4895;50.926;6.870;2022-10-31T06:41:47;13.60;;;8.50;;
9712;SDS011;4895;50.926;6.870;2022-10-31T06:44:13;19.07;;;8.50;;
9712;SDS011;4895;50.926;6.870;2022-10-31T06:46:38;13.60;;;7.67;;
9712;SDS011;4895;50.926;6.870;2022-10-31T06:49:04;14.53;;;7.40;;
9712;SDS011;4895;50.926;6.870;2022-10-31T06:51:29;24.73;;;8.40;;
9712;SDS011;4895;50.926;6.870;2022-10-31T06:53:54;15.50;;;8.90;;
9712;SDS011;4895;50.926;6.870;2022-10-31T07:00:00;19.13;;;7.93;;
9712;SDS011;4895;50.926;6.870;2022-10-31T07:02:25;16.87;;;7.80;;
9712;SDS011;4895;50.926;6.870;2022-10-31T07:04:51;16.47;;;8.10;;
9712;SDS011;4895;50.926;6.870;2022-10-31T07:07:16;18.57;;;7.00;;
9712;SDS011;4895;50.926;6.870;2022-10-31T07:09:41;11.90;;;7.33;;
9712;SDS011;4895;50.926;6.870;2022-10-31T07:12:07;14.23;;;7.90;;
9712;SDS011;4895;50.926;6.870;2022-10-31T07:14:32;16.33;;;7.47;;
9712;SDS011;4895;50.926;6.870;2022-10-31T07:16:57;19.50;;;7.80;;
9712;SDS011;4895;50.926;6.870;2022-10-31T07:19:23;13.23;;;7.00;;
9712;SDS011;4895;50.926;6.870;2022-10-31T07:21:48;13.27;;;7.63;;
9712;SDS011;4895;50.926;6.870;2022-10-31T07:24:13;14.17;;;6.60;;
9712;SDS011;4895;50.926;6.870;2022-10-31T07:26:39;21.53;;;8.37;;
9712;SDS011;4895;50.926;6.870;2022-10-31T07:29:04;13.90;;;7.13;;
9712;SDS011;4895;50.926;6.870;2022-10-31T07:31:29;14.30;;;7.70;;
9712;SDS011;4895;50.926;6.870;2022-10-31T07:33:55;27.13;;;7.60;;
9712;SDS011;4895;50.926;6.870;2022-10-31T07:36:20;17.20;;;7.60;;
9712;SDS011;4895;50.926;6.870;2022-10-31T07:38:45;15.07;;;7.70;;
9712;SDS011;4895;50.926;6.870;2022-10-31T07:41:11;14.00;;;7.47;;
9712;SDS011;4895;50.926;6.870;2022-10-31T07:43:36;18.30;;;7.33;;
9712;SDS011;4895;50.926;6.870;2022-10-31T07:46:01;13.80;;;7.60;;
9712;SDS011;4895;50.926;6.870;2022-10-31T07:48:27;12.83;;;7.80;;
9712;SDS011;4895;50.926;6.870;2022-10-31T07:50:52;19.73;;;8.67;;
9712;SDS011;4895;50.926;6.870;2022-10-31T07:53:17;13.37;;;8.47;;
9712;SDS011;4895;50.926;6.870;2022-10-31T07:55:43;14.73;;;7.70;;
9712;SDS011;4895;50.926;6.870;2022-10-31T07:58:09;18.67;;;8.57;;
9712;SDS011;4895;50.926;6.870;2022-10-31T08:00:39;16.13;;;8.20;;
9712;SDS011;4895;50.926;6.870;2022-10-31T08:03:09;16.73;;;7.90;;
9712;SDS011;4895;50.926;6.870;2022-10-31T08:05:36;16.43;;;8.93;;
9712;SDS011;4895;50.926;6.870;2022-10-31T08:08:02;19.27;;;8.50;;
9712;SDS011;4895;50.926;6.870;2022-10-31T08:10:29;20.67;;;8.47;;
9712;SDS011;4895;50.926;6.870;2022-10-31T08:12:58;16.17;;;9.23;;
9712;SDS011;4895;50.926;6.870;2022-10-31T08:15:24;15.17;;;8.30;;
9712;SDS011;4895;50.926;6.870;2022-10-31T08:17:50;21.43;;;8.97;;
9712;SDS011;4895;50.926;6.870;2022-10-31T08:20:15;21.60;;;9.57;;
9712;SDS011;4895;50.926;6.870;2022-10-31T08:22:41;18.13;;;9.57;;
9712;SDS011;4895;50.926;6.870;2022-10-31T08:25:06;19.27;;;9.07;;
9712;SDS011;4895;50.926;6.870;2022-10-31T08:27:32;19.80;;;8.10;;
9712;SDS011;4895;50.926;6.870;2022-10-31T08:29:57;16.53;;;9.10;;
9712;SDS011;4895;50.926;6.870;2022-10-31T08:32:23;22.30;;;9.00;;
9712;SDS011;4895;50.926;6.870;2022-10-31T08:34:49;20.73;;;7.33;;
9712;SDS011;4895;50.926;6.870;2022-10-31T08:37:14;20.03;;;9.20;;
9712;SDS011;4895;50.926;6.870;2022-10-31T08:39:44;20.17;;;8.50;;
9712;SDS011;4895;50.926;6.870;2022-10-31T08:42:10;23.20;;;8.13;;
9712;SDS011;4895;50.926;6.870;2022-10-31T08:44:36;26.43;;;9.27;;
9712;SDS011;4895;50.926;6.870;2022-10-31T08:47:01;18.07;;;9.37;;
9712;SDS011;4895;50.926;6.870;2022-10-31T08:49:26;22.13;;;9.17;;
9712;SDS011;4895;50.926;6.870;2022-10-31T08:51:51;23.13;;;8.37;;
9712;SDS011;4895;50.926;6.870;2022-10-31T08:54:17;20.20;;;8.87;;
9712;SDS011;4895;50.926;6.870;2022-10-31T08:56:42;17.40;;;7.63;;
9712;SDS011;4895;50.926;6.870;2022-10-31T08:59:07;22.77;;;8.83;;
9712;SDS011;4895;50.926;6.870;2022-10-31T09:01:33;23.47;;;8.93;;
9712;SDS011;4895;50.926;6.870;2022-10-31T09:03:58;16.93;;;8.37;;
9712;SDS011;4895;50.926;6.870;2022-10-31T09:06:23;16.33;;;9.03;;
9712;SDS011;4895;50.926;6.870;2022-10-31T09:08:49;16.73;;;9.27;;
9712;SDS011;4895;50.926;6.870;2022-10-31T09:11:14;19.97;;;8.30;;
9712;SDS011;4895;50.926;6.870;2022-10-31T09:13:40;22.53;;;8.97;;
9712;SDS011;4895;50.926;6.870;2022-10-31T09:16:05;25.13;;;9.20;;
9712;SDS011;4895;50.926;6.870;2022-10-31T09:18:31;19.07;;;9.00;;
9712;SDS011;4895;50.926;6.870;2022-10-31T09:20:57;17.43;;;8.87;;
9712;SDS011;4895;50.926;6.870;2022-10-31T09:23:23;16.70;;;8.97;;
9712;SDS011;4895;50.926;6.870;2022-10-31T09:25:49;15.13;;;7.50;;
9712;SDS011;4895;50.926;6.870;2022-10-31T09:28:17;22.43;;;8.70;;
9712;SDS011;4895;50.926;6.870;2022-10-31T09:30:45;20.33;;;8.37;;
9712;SDS011;4895;50.926;6.870;2022-10-31T09:33:11;16.70;;;7.73;;
9712;SDS011;4895;50.926;6.870;2022-10-31T09:35:37;15.43;;;8.00;;
9712;SDS011;4895;50.926;6.870;2022-10-31T09:38:04;18.03;;;8.00;;
9712;SDS011;4895;50.926;6.870;2022-10-31T09:40:32;24.40;;;8.60;;
9712;SDS011;4895;50.926;6.870;2022-10-31T09:43:06;19.00;;;8.17;;
9712;SDS011;4895;50.926;6.870;2022-10-31T09:45:47;18.70;;;7.40;;
9712;SDS011;4895;50.926;6.870;2022-10-31T09:50:52;21.20;;;8.57;;
9712;SDS011;4895;50.926;6.870;2022-10-31T09:53:53;16.97;;;7.90;;
9712;SDS011;4895;50.926;6.870;2022-10-31T09:56:26;18.00;;;8.23;;
9712;SDS011;4895;50.926;6.870;2022-10-31T09:58:56;25.50;;;7.53;;
9712;SDS011;4895;50.926;6.870;2022-10-31T10:01:46;12.37;;;7.13;;
9712;SDS011;4895;50.926;6.870;2022-10-31T10:06:55;17.73;;;7.70;;
9712;SDS011;4895;50.926;6.870;2022-10-31T10:09:21;19.13;;;7.40;;
9712;SDS011;4895;50.926;6.870;2022-10-31T10:17:09;20.03;;;7.83;;
9712;SDS011;4895;50.926;6.870;2022-10-31T10:25:27;17.77;;;7.90;;
9712;SDS011;4895;50.926;6.870;2022-10-31T10:28:17;21.77;;;8.27;;
9712;SDS011;4895;50.926;6.870;2022-10-31T10:30:50;17.40;;;8.10;;
9712;SDS011;4895;50.926;6.870;2022-10-31T10:36:15;19.50;;;7.77;;
9712;SDS011;4895;50.926;6.870;2022-10-31T10:41:17;10.40;;;6.30;;
9712;SDS011;4895;50.926;6.870;2022-10-31T10:43:43;15.50;;;7.57;;
9712;SDS011;4895;50.926;6.870;2022-10-31T10:51:44;22.30;;;7.37;;
9712;SDS011;4895;50.926;6.870;2022-10-31T10:59:49;15.87;;;7.87;;
9712;SDS011;4895;50.926;6.870;2022-10-31T11:02:19;19.80;;;7.13;;
9712;SDS011;4895;50.926;6.870;2022-10-31T11:04:49;17.23;;;6.90;;
9712;SDS011;4895;50.926;6.870;2022-10-31T11:07:15;18.17;;;7.33;;
9712;SDS011;4895;50.926;6.870;2022-10-31T11:09:41;21.20;;;7.87;;
9712;SDS011;4895;50.926;6.870;2022-10-31T11:12:17;26.60;;;7.90;;
9712;SDS011;4895;50.926;6.870;2022-10-31T11:15:22;22.90;;;6.67;;
9712;SDS011;4895;50.926;6.870;2022-10-31T11:17:50;19.10;;;6.50;;
9712;SDS011;4895;50.926;6.870;2022-10-31T11:22:43;15.80;;;6.40;;
9712;SDS011;4895;50.926;6.870;2022-10-31T11:27:44;14.83;;;6.70;;
9712;SDS011;4895;50.926;6.870;2022-10-31T11:30:23;16.50;;;6.63;;
9712;SDS011;4895;50.926;6.870;2022-10-31T11:32:49;14.43;;;6.83;;
9712;SDS011;4895;50.926;6.870;2022-10-31T11:35:18;15.30;;;7.37;;
9712;SDS011;4895;50.926;6.870;2022-10-31T11:37:46;20.23;;;6.90;;
9712;SDS011;4895;50.926;6.870;2022-10-31T11:40:16;19.53;;;7.40;;
9712;SDS011;4895;50.926;6.870;2022-10-31T11:42:42;14.33;;;6.73;;
9712;SDS011;4895;50.926;6.870;2022-10-31T11:47:41;19.20;;;7.00;;
9712;SDS011;4895;50.926;6.870;2022-10-31T11:50:11;20.93;;;7.93;;
9712;SDS011;4895;50.926;6.870;2022-10-31T11:52:44;20.77;;;7.23;;
9712;SDS011;4895;50.926;6.870;2022-10-31T12:00:24;17.33;;;6.17;;
9712;SDS011;4895;50.926;6.870;2022-10-31T12:02:50;16.90;;;6.63;;
9712;SDS011;4895;50.926;6.870;2022-10-31T12:05:25;24.23;;;7.23;;
9712;SDS011;4895;50.926;6.870;2022-10-31T12:07:57;14.10;;;5.93;;
9712;SDS011;4895;50.926;6.870;2022-10-31T12:10:24;11.63;;;6.83;;
9712;SDS011;4895;50.926;6.870;2022-10-31T12:15:56;14.27;;;6.30;;
9712;SDS011;4895;50.926;6.870;2022-10-31T12:45:30;11.17;;;6.60;;
9712;SDS011;4895;50.926;6.870;2022-10-31T12:50:47;14.13;;;5.83;;
9712;SDS011;4895;50.926;6.870;2022-10-31T12:58:26;15.97;;;6.47;;
9712;SDS011;4895;50.926;6.870;2022-10-31T13:01:02;11.67;;;5.70;;
9712;SDS011;4895;50.926;6.870;2022-10-31T13:03:35;12.43;;;6.07;;
9712;SDS011;4895;50.926;6.870;2022-10-31T13:06:24;15.80;;;6.10;;
9712;SDS011;4895;50.926;6.870;2022-10-31T13:08:55;14.23;;;6.37;;
9712;SDS011;4895;50.926;6.870;2022-10-31T13:11:25;13.43;;;5.50;;
9712;SDS011;4895;50.926;6.870;2022-10-31T13:16:41;25.73;;;6.50;;
9712;SDS011;4895;50.926;6.870;2022-10-31T13:24:32;14.97;;;6.40;;
9712;SDS011;4895;50.926;6.870;2022-10-31T13:27:01;19.37;;;5.73;;
9712;SDS011;4895;50.926;6.870;2022-10-31T13:32:21;12.27;;;5.80;;
9712;SDS011;4895;50.926;6.870;2022-10-31T13:34:51;15.63;;;4.93;;
9712;SDS011;4895;50.926;6.870;2022-10-31T13:45:17;16.27;;;5.20;;
9712;SDS011;4895;50.926;6.870;2022-10-31T13:47:54;13.10;;;6.57;;
9712;SDS011;4895;50.926;6.870;2022-10-31T13:50:54;14.10;;;5.80;;
9712;SDS011;4895;50.926;6.870;2022-10-31T13:53:21;9.53;;;5.30;;
9712;SDS011;4895;50.926;6.870;2022-10-31T13:56:13;13.40;;;5.33;;
9712;SDS011;4895;50.926;6.870;2022-10-31T13:58:38;16.10;;;6.10;;
9712;SDS011;4895;50.926;6.870;2022-10-31T14:03:35;16.10;;;5.67;;
9712;SDS011;4895;50.926;6.870;2022-10-31T14:06:01;14.40;;;6.00;;
9712;SDS011;4895;50.926;6.870;2022-10-31T14:08:27;18.83;;;5.83;;
9712;SDS011;4895;50.926;6.870;2022-10-31T14:10:54;13.33;;;5.30;;
9712;SDS011;4895;50.926;6.870;2022-10-31T14:13:31;16.37;;;5.37;;
9712;SDS011;4895;50.926;6.870;2022-10-31T14:16:02;11.30;;;5.97;;
9712;SDS011;4895;50.926;6.870;2022-10-31T14:18:32;18.93;;;5.37;;
9712;SDS011;4895;50.926;6.870;2022-10-31T14:20:59;18.47;;;6.03;;
9712;SDS011;4895;50.926;6.870;2022-10-31T14:28:44;19.20;;;5.20;;
9712;SDS011;4895;50.926;6.870;2022-10-31T14:31:25;10.93;;;5.00;;
9712;SDS011;4895;50.926;6.870;2022-10-31T14:33:54;17.27;;;5.90;;
9712;SDS011;4895;50.926;6.870;2022-10-31T14:36:23;23.20;;;6.50;;
9712;SDS011;4895;50.926;6.870;2022-10-31T14:39:54;16.37;;;6.17;;
9712;SDS011;4895;50.926;6.870;2022-10-31T14:47:46;14.70;;;5.43;;
9712;SDS011;4895;50.926;6.870;2022-10-31T14:53:03;15.13;;;5.03;;
9712;SDS011;4895;50.926;6.870;2022-10-31T14:55:29;12.90;;;5.10;;
9712;SDS011;4895;50.926;6.870;2022-10-31T15:00:28;15.93;;;5.33;;
9712;SDS011;4895;50.926;6.870;2022-10-31T15:03:05;25.60;;;5.57;;
9712;SDS011;4895;50.926;6.870;2022-10-31T15:05:40;14.43;;;5.27;;
9712;SDS011;4895;50.926;6.870;2022-10-31T15:08:25;13.20;;;5.57;;
9712;SDS011;4895;50.926;6.870;2022-10-31T15:11:02;20.43;;;5.53;;
9712;SDS011;4895;50.926;6.870;2022-10-31T15:13:28;20.40;;;5.87;;
9712;SDS011;4895;50.926;6.870;2022-10-31T15:15:54;12.90;;;4.83;;
9712;SDS011;4895;50.926;6.870;2022-10-31T15:18:22;16.77;;;5.93;;
9712;SDS011;4895;50.926;6.870;2022-10-31T15:20:49;16.37;;;4.70;;
9712;SDS011;4895;50.926;6.870;2022-10-31T15:23:23;14.87;;;5.10;;
9712;SDS011;4895;50.926;6.870;2022-10-31T15:25:50;11.73;;;5.30;;
9712;SDS011;4895;50.926;6.870;2022-10-31T15:28:20;15.93;;;5.03;;
9712;SDS011;4895;50.926;6.870;2022-10-31T15:30:51;15.07;;;5.70;;
9712;SDS011;4895;50.926;6.870;2022-10-31T15:33:22;15.17;;;4.80;;
9712;SDS011;4895;50.926;6.870;2022-10-31T15:35:56;15.87;;;5.00;;
9712;SDS011;4895;50.926;6.870;2022-10-31T15:38:26;13.03;;;5.00;;
9712;SDS011;4895;50.926;6.870;2022-10-31T15:40:57;20.97;;;4.77;;
9712;SDS011;4895;50.926;6.870;2022-10-31T15:43:24;15.97;;;5.00;;
9712;SDS011;4895;50.926;6.870;2022-10-31T15:45:49;21.73;;;5.30;;
9712;SDS011;4895;50.926;6.870;2022-10-31T15:48:16;11.13;;;4.70;;
9712;SDS011;4895;50.926;6.870;2022-10-31T15:50:47;12.93;;;4.80;;
9712;SDS011;4895;50.926;6.870;2022-10-31T15:53:36;14.73;;;5.47;;
9712;SDS011;4895;50.926;6.870;2022-10-31T15:56:08;18.83;;;5.40;;
9712;SDS011;4895;50.926;6.870;2022-10-31T15:58:44;13.37;;;4.57;;
9712;SDS011;4895;50.926;6.870;2022-10-31T16:06:30;12.73;;;4.60;;
9712;SDS011;4895;50.926;6.870;2022-10-31T16:08:56;14.77;;;5.20;;
9712;SDS011;4895;50.926;6.870;2022-10-31T16:16:42;15.13;;;4.90;;
9712;SDS011;4895;50.926;6.870;2022-10-31T16:19:16;19.47;;;5.70;;
9712;SDS011;4895;50.926;6.870;2022-10-31T16:22:02;17.03;;;5.40;;
9712;SDS011;4895;50.926;6.870;2022-10-31T16:24:34;16.63;;;5.67;;
9712;SDS011;4895;50.926;6.870;2022-10-31T16:27:19;13.93;;;4.70;;
9712;SDS011;4895;50.926;6.870;2022-10-31T16:29:50;13.53;;;5.33;;
9712;SDS011;4895;50.926;6.870;2022-10-31T16:35:24;10.70;;;5.53;;
9712;SDS011;4895;50.926;6.870;2022-10-31T16:37:53;15.37;;;5.53;;
9712;SDS011;4895;50.926;6.870;2022-10-31T16:40:19;15.40;;;5.53;;
9712;SDS011;4895;50.926;6.870;2022-10-31T16:42:45;13.47;;;5.00;;
9712;SDS011;4895;50.926;6.870;2022-10-31T16:45:18;12.80;;;5.10;;
9712;SDS011;4895;50.926;6.870;2022-10-31T16:47:45;22.10;;;4.60;;
9712;SDS011;4895;50.926;6.870;2022-10-31T16:50:12;15.70;;;5.10;;
9712;SDS011;4895;50.926;6.870;2022-10-31T16:52:39;13.40;;;5.80;;
9712;SDS011;4895;50.926;6.870;2022-10-31T16:55:04;16.27;;;5.20;;
9712;SDS011;4895;50.926;6.870;2022-10-31T16:57:30;13.73;;;5.50;;
9712;SDS011;4895;50.926;6.870;2022-10-31T16:59:56;14.50;;;4.87;;
9712;SDS011;4895;50.926;6.870;2022-10-31T17:02:21;22.27;;;6.30;;
9712;SDS011;4895;50.926;6.870;2022-10-31T17:04:47;8.60;;;5.07;;
9712;SDS011;4895;50.926;6.870;2022-10-31T17:07:12;15.70;;;6.30;;
9712;SDS011;4895;50.926;6.870;2022-10-31T17:09:37;12.17;;;4.60;;
9712;SDS011;4895;50.926;6.870;2022-10-31T17:12:03;12.23;;;5.40;;
9712;SDS011;4895;50.926;6.870;2022-10-31T17:14:29;12.33;;;4.50;;
9712;SDS011;4895;50.926;6.870;2022-10-31T17:16:55;16.93;;;4.70;;
9712;SDS011;4895;50.926;6.870;2022-10-31T17:19:20;17.23;;;5.67;;
9712;SDS011;4895;50.926;6.870;2022-10-31T17:21:46;10.33;;;5.57;;
9712;SDS011;4895;50.926;6.870;2022-10-31T17:24:12;14.43;;;5.67;;
9712;SDS011;4895;50.926;6.870;2022-10-31T17:26:38;21.30;;;6.43;;
9712;SDS011;4895;50.926;6.870;2022-10-31T17:29:04;11.97;;;5.27;;
9712;SDS011;4895;50.926;6.870;2022-10-31T17:31:30;9.40;;;4.70;;
9712;SDS011;4895;50.926;6.870;2022-10-31T17:33:56;12.67;;;5.67;;
9712;SDS011;4895;50.926;6.870;2022-10-31T17:36:23;14.93;;;5.83;;
9712;SDS011;4895;50.926;6.870;2022-10-31T17:38:49;11.10;;;5.67;;
9712;SDS011;4895;50.926;6.870;2022-10-31T17:41:14;13.70;;;5.90;;
9712;SDS011;4895;50.926;6.870;2022-10-31T17:43:39;12.50;;;5.43;;
9712;SDS011;4895;50.926;6.870;2022-10-31T17:46:05;10.80;;;5.13;;
9712;SDS011;4895;50.926;6.870;2022-10-31T17:48:32;14.13;;;5.50;;
9712;SDS011;4895;50.926;6.870;2022-10-31T17:50:59;11.97;;;5.10;;
9712;SDS011;4895;50.926;6.870;2022-10-31T17:53:27;13.33;;;5.50;;
9712;SDS011;4895;50.926;6.870;2022-10-31T17:55:53;15.43;;;6.87;;